sensor_id;sensor_type;location;lat;lon;timestamp;P1;durP1;ratioP1;P2;durP2;ratioP2
11431;SDS011;5772;50.940;6.782;2023-03-14T00:00:51;21.70;;;20.13;;
11431;SDS011;5772;50.940;6.782;2023-03-14T00:03:17;22.53;;;21.50;;
11431;SDS011;5772;50.940;6.782;2023-03-14T00:05:42;20.13;;;19.20;;
11431;SDS011;5772;50.940;6.782;2023-03-14T00:08:07;20.67;;;19.73;;
11431;SDS011;5772;50.940;6.782;2023-03-14T00:10:33;21.80;;;20.43;;
11431;SDS011;5772;50.940;6.782;2023-03-14T00:13:00;23.23;;;21.93;;
11431;SDS011;5772;50.940;6.782;2023-03-14T00:15:27;21.17;;;20.07;;
11431;SDS011;5772;50.940;6.782;2023-03-14T00:17:52;20.10;;;19.20;;
11431;SDS011;5772;50.940;6.782;2023-03-14T00:20:18;21.47;;;20.37;;
11431;SDS011;5772;50.940;6.782;2023-03-14T00:22:43;21.20;;;20.30;;
11431;SDS011;5772;50.940;6.782;2023-03-14T00:25:09;20.87;;;19.77;;
11431;SDS011;5772;50.940;6.782;2023-03-14T00:27:35;20.13;;;18.97;;
11431;SDS011;5772;50.940;6.782;2023-03-14T00:30:00;19.53;;;18.73;;
11431;SDS011;5772;50.940;6.782;2023-03-14T00:32:27;21.87;;;20.83;;
11431;SDS011;5772;50.940;6.782;2023-03-14T00:34:53;21.47;;;20.27;;
11431;SDS011;5772;50.940;6.782;2023-03-14T00:37:18;21.20;;;20.00;;
11431;SDS011;5772;50.940;6.782;2023-03-14T00:39:44;21.07;;;19.97;;
11431;SDS011;5772;50.940;6.782;2023-03-14T00:42:09;23.50;;;22.33;;
11431;SDS011;5772;50.940;6.782;2023-03-14T00:44:34;23.13;;;21.73;;
11431;SDS011;5772;50.940;6.782;2023-03-14T00:47:00;22.80;;;21.40;;
11431;SDS011;5772;50.940;6.782;2023-03-14T00:49:27;21.73;;;20.80;;
11431;SDS011;5772;50.940;6.782;2023-03-14T00:51:52;20.77;;;19.87;;
11431;SDS011;5772;50.940;6.782;2023-03-14T00:54:17;22.20;;;20.80;;
11431;SDS011;5772;50.940;6.782;2023-03-14T00:56:43;25.10;;;23.90;;
11431;SDS011;5772;50.940;6.782;2023-03-14T00:59:08;25.20;;;24.03;;
11431;SDS011;5772;50.940;6.782;2023-03-14T01:01:33;27.53;;;26.03;;
11431;SDS011;5772;50.940;6.782;2023-03-14T01:03:59;27.87;;;26.70;;
11431;SDS011;5772;50.940;6.782;2023-03-14T01:06:27;28.97;;;27.60;;
11431;SDS011;5772;50.940;6.782;2023-03-14T01:08:54;32.03;;;30.47;;
11431;SDS011;5772;50.940;6.782;2023-03-14T01:11:20;31.27;;;29.80;;
11431;SDS011;5772;50.940;6.782;2023-03-14T01:13:47;29.27;;;28.00;;
11431;SDS011;5772;50.940;6.782;2023-03-14T01:16:12;30.13;;;28.80;;
11431;SDS011;5772;50.940;6.782;2023-03-14T01:18:39;36.13;;;34.67;;
11431;SDS011;5772;50.940;6.782;2023-03-14T01:21:09;43.87;;;41.77;;
11431;SDS011;5772;50.940;6.782;2023-03-14T01:23:37;55.43;;;52.70;;
11431;SDS011;5772;50.940;6.782;2023-03-14T01:26:02;53.10;;;50.97;;
11431;SDS011;5772;50.940;6.782;2023-03-14T01:28:27;49.10;;;47.17;;
11431;SDS011;5772;50.940;6.782;2023-03-14T01:30:53;47.87;;;45.90;;
11431;SDS011;5772;50.940;6.782;2023-03-14T01:33:18;45.10;;;43.13;;
11431;SDS011;5772;50.940;6.782;2023-03-14T01:35:43;45.87;;;43.97;;
11431;SDS011;5772;50.940;6.782;2023-03-14T01:38:09;43.27;;;41.27;;
11431;SDS011;5772;50.940;6.782;2023-03-14T01:40:42;47.57;;;45.37;;
11431;SDS011;5772;50.940;6.782;2023-03-14T01:43:13;44.03;;;42.03;;
11431;SDS011;5772;50.940;6.782;2023-03-14T01:48:39;39.03;;;37.40;;
11431;SDS011;5772;50.940;6.782;2023-03-14T01:51:08;40.30;;;38.47;;
11431;SDS011;5772;50.940;6.782;2023-03-14T01:53:34;37.63;;;36.00;;
11431;SDS011;5772;50.940;6.782;2023-03-14T01:56:02;30.50;;;29.20;;
11431;SDS011;5772;50.940;6.782;2023-03-14T01:58:27;29.37;;;28.20;;
11431;SDS011;5772;50.940;6.782;2023-03-14T02:00:55;26.60;;;25.40;;
11431;SDS011;5772;50.940;6.782;2023-03-14T02:03:22;24.87;;;23.97;;
11431;SDS011;5772;50.940;6.782;2023-03-14T02:05:48;29.63;;;28.43;;
11431;SDS011;5772;50.940;6.782;2023-03-14T02:08:15;31.33;;;29.83;;
11431;SDS011;5772;50.940;6.782;2023-03-14T02:10:43;29.80;;;28.63;;
11431;SDS011;5772;50.940;6.782;2023-03-14T02:13:11;30.43;;;29.17;;
11431;SDS011;5772;50.940;6.782;2023-03-14T02:15:37;30.63;;;29.30;;
11431;SDS011;5772;50.940;6.782;2023-03-14T02:18:03;28.80;;;26.97;;
11431;SDS011;5772;50.940;6.782;2023-03-14T02:20:30;29.57;;;28.37;;
11431;SDS011;5772;50.940;6.782;2023-03-14T02:22:59;26.77;;;25.70;;
11431;SDS011;5772;50.940;6.782;2023-03-14T02:25:26;26.93;;;25.90;;
11431;SDS011;5772;50.940;6.782;2023-03-14T02:27:57;28.20;;;26.97;;
11431;SDS011;5772;50.940;6.782;2023-03-14T02:30:24;30.10;;;28.93;;
11431;SDS011;5772;50.940;6.782;2023-03-14T02:32:51;28.67;;;27.47;;
11431;SDS011;5772;50.940;6.782;2023-03-14T02:35:21;28.10;;;26.90;;
11431;SDS011;5772;50.940;6.782;2023-03-14T02:37:47;30.43;;;28.90;;
11431;SDS011;5772;50.940;6.782;2023-03-14T02:40:15;27.67;;;26.57;;
11431;SDS011;5772;50.940;6.782;2023-03-14T02:42:41;29.90;;;28.60;;
11431;SDS011;5772;50.940;6.782;2023-03-14T02:48:04;29.43;;;27.87;;
11431;SDS011;5772;50.940;6.782;2023-03-14T02:50:32;26.87;;;25.77;;
11431;SDS011;5772;50.940;6.782;2023-03-14T02:52:58;29.20;;;28.00;;
11431;SDS011;5772;50.940;6.782;2023-03-14T02:55:24;29.00;;;27.50;;
11431;SDS011;5772;50.940;6.782;2023-03-14T02:57:50;26.63;;;25.40;;
11431;SDS011;5772;50.940;6.782;2023-03-14T03:00:15;28.63;;;27.43;;
11431;SDS011;5772;50.940;6.782;2023-03-14T03:02:43;30.10;;;28.70;;
11431;SDS011;5772;50.940;6.782;2023-03-14T03:05:08;31.23;;;30.03;;
11431;SDS011;5772;50.940;6.782;2023-03-14T03:07:33;32.40;;;30.83;;
11431;SDS011;5772;50.940;6.782;2023-03-14T03:09:59;30.10;;;28.90;;
11431;SDS011;5772;50.940;6.782;2023-03-14T03:12:24;32.77;;;31.37;;
11431;SDS011;5772;50.940;6.782;2023-03-14T03:14:50;32.03;;;30.53;;
11431;SDS011;5772;50.940;6.782;2023-03-14T03:17:15;34.70;;;33.23;;
11431;SDS011;5772;50.940;6.782;2023-03-14T03:19:42;35.13;;;33.70;;
11431;SDS011;5772;50.940;6.782;2023-03-14T03:22:07;38.80;;;37.20;;
11431;SDS011;5772;50.940;6.782;2023-03-14T03:24:33;37.57;;;36.07;;
11431;SDS011;5772;50.940;6.782;2023-03-14T03:26:58;37.67;;;36.17;;
11431;SDS011;5772;50.940;6.782;2023-03-14T03:29:23;39.00;;;37.50;;
11431;SDS011;5772;50.940;6.782;2023-03-14T03:31:49;38.07;;;36.33;;
11431;SDS011;5772;50.940;6.782;2023-03-14T03:34:14;39.10;;;37.50;;
11431;SDS011;5772;50.940;6.782;2023-03-14T03:36:41;38.73;;;36.77;;
11431;SDS011;5772;50.940;6.782;2023-03-14T03:39:07;38.53;;;36.83;;
11431;SDS011;5772;50.940;6.782;2023-03-14T03:41:33;39.43;;;37.83;;
11431;SDS011;5772;50.940;6.782;2023-03-14T03:43:58;39.30;;;37.47;;
11431;SDS011;5772;50.940;6.782;2023-03-14T03:46:24;40.27;;;38.57;;
11431;SDS011;5772;50.940;6.782;2023-03-14T03:48:53;36.97;;;35.37;;
11431;SDS011;5772;50.940;6.782;2023-03-14T03:51:19;39.13;;;37.37;;
11431;SDS011;5772;50.940;6.782;2023-03-14T03:53:46;36.63;;;34.67;;
11431;SDS011;5772;50.940;6.782;2023-03-14T03:56:11;35.63;;;34.23;;
11431;SDS011;5772;50.940;6.782;2023-03-14T03:58:36;33.87;;;32.17;;
11431;SDS011;5772;50.940;6.782;2023-03-14T04:01:02;34.20;;;32.87;;
11431;SDS011;5772;50.940;6.782;2023-03-14T04:03:27;41.07;;;39.07;;
11431;SDS011;5772;50.940;6.782;2023-03-14T04:05:59;36.70;;;34.97;;
11431;SDS011;5772;50.940;6.782;2023-03-14T04:08:24;33.83;;;32.03;;
11431;SDS011;5772;50.940;6.782;2023-03-14T04:10:54;33.53;;;31.80;;
11431;SDS011;5772;50.940;6.782;2023-03-14T04:13:20;29.30;;;27.90;;
11431;SDS011;5772;50.940;6.782;2023-03-14T04:15:46;27.33;;;25.83;;
11431;SDS011;5772;50.940;6.782;2023-03-14T04:18:11;33.13;;;31.60;;
11431;SDS011;5772;50.940;6.782;2023-03-14T04:20:36;35.97;;;34.13;;
11431;SDS011;5772;50.940;6.782;2023-03-14T04:23:02;39.57;;;37.97;;
11431;SDS011;5772;50.940;6.782;2023-03-14T04:25:27;42.27;;;40.57;;
11431;SDS011;5772;50.940;6.782;2023-03-14T04:27:54;42.03;;;40.23;;
11431;SDS011;5772;50.940;6.782;2023-03-14T04:30:19;43.47;;;41.20;;
11431;SDS011;5772;50.940;6.782;2023-03-14T04:32:45;41.27;;;39.63;;
11431;SDS011;5772;50.940;6.782;2023-03-14T04:35:10;42.60;;;40.70;;
11431;SDS011;5772;50.940;6.782;2023-03-14T04:37:35;44.57;;;42.77;;
11431;SDS011;5772;50.940;6.782;2023-03-14T04:40:01;44.17;;;42.37;;
11431;SDS011;5772;50.940;6.782;2023-03-14T04:42:26;43.83;;;42.13;;
11431;SDS011;5772;50.940;6.782;2023-03-14T04:44:53;44.80;;;42.90;;
11431;SDS011;5772;50.940;6.782;2023-03-14T04:47:18;43.50;;;41.67;;
11431;SDS011;5772;50.940;6.782;2023-03-14T04:49:43;42.33;;;40.63;;
11431;SDS011;5772;50.940;6.782;2023-03-14T04:52:09;43.47;;;41.50;;
11431;SDS011;5772;50.940;6.782;2023-03-14T04:54:34;43.77;;;41.87;;
11431;SDS011;5772;50.940;6.782;2023-03-14T04:56:59;42.43;;;40.80;;
11431;SDS011;5772;50.940;6.782;2023-03-14T04:59:25;43.63;;;41.83;;
11431;SDS011;5772;50.940;6.782;2023-03-14T05:01:51;43.73;;;42.03;;
11431;SDS011;5772;50.940;6.782;2023-03-14T05:04:17;44.13;;;42.43;;
11431;SDS011;5772;50.940;6.782;2023-03-14T05:06:42;46.87;;;44.87;;
11431;SDS011;5772;50.940;6.782;2023-03-14T05:09:07;44.23;;;42.30;;
11431;SDS011;5772;50.940;6.782;2023-03-14T05:11:33;43.87;;;42.10;;
11431;SDS011;5772;50.940;6.782;2023-03-14T05:13:58;44.67;;;42.83;;
11431;SDS011;5772;50.940;6.782;2023-03-14T05:16:24;45.67;;;43.77;;
11431;SDS011;5772;50.940;6.782;2023-03-14T05:18:51;42.00;;;40.30;;
11431;SDS011;5772;50.940;6.782;2023-03-14T05:21:16;46.47;;;44.37;;
11431;SDS011;5772;50.940;6.782;2023-03-14T05:23:41;42.93;;;41.23;;
11431;SDS011;5772;50.940;6.782;2023-03-14T05:26:07;39.93;;;38.40;;
11431;SDS011;5772;50.940;6.782;2023-03-14T05:28:32;38.83;;;37.33;;
11431;SDS011;5772;50.940;6.782;2023-03-14T05:30:57;37.33;;;35.83;;
11431;SDS011;5772;50.940;6.782;2023-03-14T05:33:23;61.73;;;59.13;;
11431;SDS011;5772;50.940;6.782;2023-03-14T05:35:49;75.47;;;71.73;;
11431;SDS011;5772;50.940;6.782;2023-03-14T05:38:15;41.27;;;39.67;;
11431;SDS011;5772;50.940;6.782;2023-03-14T05:40:40;38.57;;;37.07;;
11431;SDS011;5772;50.940;6.782;2023-03-14T05:43:06;40.63;;;39.03;;
11431;SDS011;5772;50.940;6.782;2023-03-14T05:45:31;37.47;;;36.03;;
11431;SDS011;5772;50.940;6.782;2023-03-14T05:47:56;40.87;;;39.27;;
11431;SDS011;5772;50.940;6.782;2023-03-14T05:50:22;41.80;;;40.20;;
11431;SDS011;5772;50.940;6.782;2023-03-14T05:52:48;43.43;;;41.73;;
11431;SDS011;5772;50.940;6.782;2023-03-14T05:55:14;40.63;;;39.03;;
11431;SDS011;5772;50.940;6.782;2023-03-14T05:57:39;38.53;;;37.03;;
11431;SDS011;5772;50.940;6.782;2023-03-14T06:00:05;35.93;;;34.50;;
11431;SDS011;5772;50.940;6.782;2023-03-14T06:02:31;35.93;;;34.43;;
11431;SDS011;5772;50.940;6.782;2023-03-14T06:04:56;38.50;;;37.00;;
11431;SDS011;5772;50.940;6.782;2023-03-14T06:07:22;40.33;;;38.73;;
11431;SDS011;5772;50.940;6.782;2023-03-14T06:09:48;40.97;;;39.37;;
11431;SDS011;5772;50.940;6.782;2023-03-14T06:12:14;39.37;;;37.73;;
11431;SDS011;5772;50.940;6.782;2023-03-14T06:14:39;41.47;;;39.83;;
11431;SDS011;5772;50.940;6.782;2023-03-14T06:17:04;42.10;;;40.47;;
11431;SDS011;5772;50.940;6.782;2023-03-14T06:19:30;41.50;;;39.70;;
11431;SDS011;5772;50.940;6.782;2023-03-14T06:21:55;41.20;;;39.60;;
11431;SDS011;5772;50.940;6.782;2023-03-14T06:24:20;40.07;;;38.50;;
11431;SDS011;5772;50.940;6.782;2023-03-14T06:26:47;41.07;;;39.37;;
11431;SDS011;5772;50.940;6.782;2023-03-14T06:29:12;42.40;;;40.70;;
11431;SDS011;5772;50.940;6.782;2023-03-14T06:31:38;40.90;;;39.33;;
11431;SDS011;5772;50.940;6.782;2023-03-14T06:34:03;40.57;;;39.00;;
11431;SDS011;5772;50.940;6.782;2023-03-14T06:36:28;39.13;;;37.53;;
11431;SDS011;5772;50.940;6.782;2023-03-14T06:38:54;38.27;;;36.77;;
11431;SDS011;5772;50.940;6.782;2023-03-14T06:41:19;38.37;;;36.87;;
11431;SDS011;5772;50.940;6.782;2023-03-14T06:43:46;42.40;;;40.70;;
11431;SDS011;5772;50.940;6.782;2023-03-14T06:46:11;41.47;;;39.87;;
11431;SDS011;5772;50.940;6.782;2023-03-14T06:48:37;40.97;;;39.37;;
11431;SDS011;5772;50.940;6.782;2023-03-14T06:51:02;37.23;;;35.77;;
11431;SDS011;5772;50.940;6.782;2023-03-14T06:53:28;33.90;;;32.60;;
11431;SDS011;5772;50.940;6.782;2023-03-14T06:55:53;34.73;;;33.40;;
11431;SDS011;5772;50.940;6.782;2023-03-14T06:58:18;30.00;;;28.83;;
11431;SDS011;5772;50.940;6.782;2023-03-14T07:00:45;30.90;;;29.70;;
11431;SDS011;5772;50.940;6.782;2023-03-14T07:03:11;30.27;;;29.10;;
11431;SDS011;5772;50.940;6.782;2023-03-14T07:05:38;30.63;;;29.43;;
11431;SDS011;5772;50.940;6.782;2023-03-14T07:08:03;30.03;;;28.83;;
11431;SDS011;5772;50.940;6.782;2023-03-14T07:10:28;29.87;;;28.67;;
11431;SDS011;5772;50.940;6.782;2023-03-14T07:12:54;28.90;;;27.80;;
11431;SDS011;5772;50.940;6.782;2023-03-14T07:15:19;28.63;;;27.53;;
11431;SDS011;5772;50.940;6.782;2023-03-14T07:17:46;27.70;;;26.60;;
11431;SDS011;5772;50.940;6.782;2023-03-14T07:20:12;29.63;;;28.53;;
11431;SDS011;5772;50.940;6.782;2023-03-14T07:22:37;27.57;;;26.50;;
11431;SDS011;5772;50.940;6.782;2023-03-14T07:25:02;26.80;;;25.80;;
11431;SDS011;5772;50.940;6.782;2023-03-14T07:27:28;29.63;;;28.53;;
11431;SDS011;5772;50.940;6.782;2023-03-14T07:29:53;27.43;;;26.37;;
11431;SDS011;5772;50.940;6.782;2023-03-14T07:32:19;28.53;;;27.37;;
11431;SDS011;5772;50.940;6.782;2023-03-14T07:34:45;26.73;;;25.73;;
11431;SDS011;5772;50.940;6.782;2023-03-14T07:37:11;27.43;;;26.33;;
11431;SDS011;5772;50.940;6.782;2023-03-14T07:39:36;32.70;;;31.27;;
11431;SDS011;5772;50.940;6.782;2023-03-14T07:42:02;32.07;;;30.80;;
11431;SDS011;5772;50.940;6.782;2023-03-14T07:44:27;30.03;;;28.83;;
11431;SDS011;5772;50.940;6.782;2023-03-14T07:46:52;29.83;;;28.63;;
11431;SDS011;5772;50.940;6.782;2023-03-14T07:49:18;33.27;;;31.97;;
11431;SDS011;5772;50.940;6.782;2023-03-14T07:51:46;27.27;;;26.23;;
11431;SDS011;5772;50.940;6.782;2023-03-14T07:54:12;27.17;;;26.17;;
11431;SDS011;5772;50.940;6.782;2023-03-14T07:56:37;29.70;;;28.50;;
11431;SDS011;5772;50.940;6.782;2023-03-14T07:59:03;30.00;;;28.77;;
11431;SDS011;5772;50.940;6.782;2023-03-14T08:01:28;27.93;;;26.83;;
11431;SDS011;5772;50.940;6.782;2023-03-14T08:03:53;28.53;;;27.43;;
11431;SDS011;5772;50.940;6.782;2023-03-14T08:06:19;31.33;;;30.13;;
11431;SDS011;5772;50.940;6.782;2023-03-14T08:08:45;33.37;;;32.07;;
11431;SDS011;5772;50.940;6.782;2023-03-14T08:11:11;30.00;;;28.80;;
11431;SDS011;5772;50.940;6.782;2023-03-14T08:13:36;33.73;;;32.43;;
11431;SDS011;5772;50.940;6.782;2023-03-14T08:16:02;34.77;;;33.47;;
11431;SDS011;5772;50.940;6.782;2023-03-14T08:18:28;34.80;;;33.40;;
11431;SDS011;5772;50.940;6.782;2023-03-14T08:20:53;34.23;;;32.93;;
11431;SDS011;5772;50.940;6.782;2023-03-14T08:23:19;35.07;;;33.67;;
11431;SDS011;5772;50.940;6.782;2023-03-14T08:25:47;33.93;;;32.63;;
11431;SDS011;5772;50.940;6.782;2023-03-14T08:28:13;33.73;;;32.43;;
11431;SDS011;5772;50.940;6.782;2023-03-14T08:30:39;36.17;;;34.77;;
11431;SDS011;5772;50.940;6.782;2023-03-14T08:33:04;35.87;;;34.37;;
11431;SDS011;5772;50.940;6.782;2023-03-14T08:35:29;34.27;;;32.87;;
11431;SDS011;5772;50.940;6.782;2023-03-14T08:37:55;34.07;;;32.70;;
11431;SDS011;5772;50.940;6.782;2023-03-14T08:40:20;31.40;;;30.20;;
11431;SDS011;5772;50.940;6.782;2023-03-14T08:42:47;29.67;;;28.57;;
11431;SDS011;5772;50.940;6.782;2023-03-14T08:45:13;31.73;;;30.53;;
11431;SDS011;5772;50.940;6.782;2023-03-14T08:47:39;34.27;;;32.97;;
11431;SDS011;5772;50.940;6.782;2023-03-14T08:50:05;23.50;;;22.40;;
11431;SDS011;5772;50.940;6.782;2023-03-14T08:52:31;30.50;;;29.30;;
11431;SDS011;5772;50.940;6.782;2023-03-14T08:54:57;32.07;;;30.67;;
11431;SDS011;5772;50.940;6.782;2023-03-14T08:57:22;27.30;;;26.20;;
11431;SDS011;5772;50.940;6.782;2023-03-14T08:59:49;32.60;;;31.30;;
11431;SDS011;5772;50.940;6.782;2023-03-14T09:02:14;37.33;;;35.83;;
11431;SDS011;5772;50.940;6.782;2023-03-14T09:04:40;38.77;;;37.27;;
11431;SDS011;5772;50.940;6.782;2023-03-14T09:07:05;37.97;;;36.37;;
11431;SDS011;5772;50.940;6.782;2023-03-14T09:09:30;36.63;;;35.03;;
11431;SDS011;5772;50.940;6.782;2023-03-14T09:11:56;37.17;;;35.70;;
11431;SDS011;5772;50.940;6.782;2023-03-14T09:14:21;38.53;;;37.03;;
11431;SDS011;5772;50.940;6.782;2023-03-14T09:16:48;39.57;;;37.97;;
11431;SDS011;5772;50.940;6.782;2023-03-14T09:19:14;37.50;;;36.00;;
11431;SDS011;5772;50.940;6.782;2023-03-14T09:21:39;40.73;;;39.00;;
11431;SDS011;5772;50.940;6.782;2023-03-14T09:24:04;40.53;;;38.73;;
11431;SDS011;5772;50.940;6.782;2023-03-14T09:26:30;40.23;;;38.63;;
11431;SDS011;5772;50.940;6.782;2023-03-14T09:28:56;42.27;;;40.57;;
11431;SDS011;5772;50.940;6.782;2023-03-14T09:31:21;30.20;;;29.00;;
11431;SDS011;5772;50.940;6.782;2023-03-14T09:33:48;31.40;;;30.20;;
11431;SDS011;5772;50.940;6.782;2023-03-14T09:36:13;30.13;;;28.93;;
11431;SDS011;5772;50.940;6.782;2023-03-14T09:38:39;35.37;;;33.93;;
11431;SDS011;5772;50.940;6.782;2023-03-14T09:41:09;43.60;;;41.90;;
11431;SDS011;5772;50.940;6.782;2023-03-14T09:43:38;40.97;;;39.30;;
11431;SDS011;5772;50.940;6.782;2023-03-14T09:46:04;31.70;;;30.47;;
11431;SDS011;5772;50.940;6.782;2023-03-14T09:48:32;31.23;;;30.03;;
11431;SDS011;5772;50.940;6.782;2023-03-14T09:51:00;30.83;;;29.63;;
11431;SDS011;5772;50.940;6.782;2023-03-14T09:53:31;34.67;;;33.33;;
11431;SDS011;5772;50.940;6.782;2023-03-14T09:56:01;37.80;;;36.30;;
11431;SDS011;5772;50.940;6.782;2023-03-14T09:58:26;41.13;;;39.43;;
11431;SDS011;5772;50.940;6.782;2023-03-14T10:00:52;41.70;;;40.00;;
11431;SDS011;5772;50.940;6.782;2023-03-14T10:03:24;40.93;;;39.30;;
11431;SDS011;5772;50.940;6.782;2023-03-14T10:05:51;43.93;;;42.13;;
11431;SDS011;5772;50.940;6.782;2023-03-14T10:08:18;42.90;;;41.13;;
11431;SDS011;5772;50.940;6.782;2023-03-14T10:10:43;47.47;;;45.47;;
11431;SDS011;5772;50.940;6.782;2023-03-14T10:13:12;46.60;;;44.70;;
11431;SDS011;5772;50.940;6.782;2023-03-14T10:15:40;50.80;;;48.60;;
11431;SDS011;5772;50.940;6.782;2023-03-14T10:18:09;46.23;;;44.33;;
11431;SDS011;5772;50.940;6.782;2023-03-14T10:20:36;45.10;;;43.20;;
11431;SDS011;5772;50.940;6.782;2023-03-14T10:23:04;45.87;;;44.00;;
11431;SDS011;5772;50.940;6.782;2023-03-14T10:25:32;44.63;;;42.83;;
11431;SDS011;5772;50.940;6.782;2023-03-14T10:28:02;48.10;;;45.77;;
11431;SDS011;5772;50.940;6.782;2023-03-14T10:30:37;48.50;;;46.57;;
11431;SDS011;5772;50.940;6.782;2023-03-14T10:33:07;47.97;;;45.97;;
11431;SDS011;5772;50.940;6.782;2023-03-14T10:35:34;44.47;;;42.67;;
11431;SDS011;5772;50.940;6.782;2023-03-14T10:38:00;48.23;;;46.23;;
11431;SDS011;5772;50.940;6.782;2023-03-14T10:40:27;49.90;;;47.87;;
11431;SDS011;5772;50.940;6.782;2023-03-14T10:42:56;49.93;;;47.83;;
11431;SDS011;5772;50.940;6.782;2023-03-14T10:45:25;53.13;;;50.93;;
11431;SDS011;5772;50.940;6.782;2023-03-14T10:47:54;49.87;;;47.87;;
11431;SDS011;5772;50.940;6.782;2023-03-14T10:50:24;49.33;;;47.23;;
11431;SDS011;5772;50.940;6.782;2023-03-14T10:52:51;51.33;;;49.10;;
11431;SDS011;5772;50.940;6.782;2023-03-14T10:55:17;45.83;;;44.03;;
11431;SDS011;5772;50.940;6.782;2023-03-14T10:57:43;47.70;;;45.60;;
11431;SDS011;5772;50.940;6.782;2023-03-14T11:00:12;44.20;;;42.40;;
11431;SDS011;5772;50.940;6.782;2023-03-14T11:02:44;41.97;;;40.27;;
11431;SDS011;5772;50.940;6.782;2023-03-14T11:05:18;48.37;;;46.47;;
11431;SDS011;5772;50.940;6.782;2023-03-14T11:07:47;50.10;;;48.03;;
11431;SDS011;5772;50.940;6.782;2023-03-14T11:10:14;53.30;;;50.73;;
11431;SDS011;5772;50.940;6.782;2023-03-14T11:12:46;49.50;;;47.40;;
11431;SDS011;5772;50.940;6.782;2023-03-14T11:15:19;48.57;;;46.57;;
11431;SDS011;5772;50.940;6.782;2023-03-14T11:17:50;48.33;;;46.13;;
11431;SDS011;5772;50.940;6.782;2023-03-14T11:20:26;47.40;;;45.40;;
11431;SDS011;5772;50.940;6.782;2023-03-14T11:22:59;45.83;;;43.83;;
11431;SDS011;5772;50.940;6.782;2023-03-14T11:25:29;51.07;;;48.87;;
11431;SDS011;5772;50.940;6.782;2023-03-14T11:28:00;48.03;;;46.03;;
11431;SDS011;5772;50.940;6.782;2023-03-14T11:30:32;50.00;;;47.87;;
11431;SDS011;5772;50.940;6.782;2023-03-14T11:33:02;44.73;;;42.83;;
11431;SDS011;5772;50.940;6.782;2023-03-14T11:35:30;38.93;;;37.13;;
11431;SDS011;5772;50.940;6.782;2023-03-14T11:38:00;36.70;;;35.20;;
11431;SDS011;5772;50.940;6.782;2023-03-14T11:40:28;37.57;;;36.10;;
11431;SDS011;5772;50.940;6.782;2023-03-14T11:42:56;34.20;;;32.70;;
11431;SDS011;5772;50.940;6.782;2023-03-14T11:45:26;27.40;;;26.30;;
11431;SDS011;5772;50.940;6.782;2023-03-14T11:47:59;28.70;;;27.50;;
11431;SDS011;5772;50.940;6.782;2023-03-14T11:50:32;27.63;;;26.53;;
11431;SDS011;5772;50.940;6.782;2023-03-14T11:52:58;29.13;;;27.93;;
11431;SDS011;5772;50.940;6.782;2023-03-14T11:55:28;35.70;;;34.23;;
11431;SDS011;5772;50.940;6.782;2023-03-14T11:57:58;35.07;;;33.47;;
11431;SDS011;5772;50.940;6.782;2023-03-14T12:00:25;33.87;;;32.37;;
11431;SDS011;5772;50.940;6.782;2023-03-14T12:02:51;32.87;;;31.57;;
11431;SDS011;5772;50.940;6.782;2023-03-14T12:05:39;32.80;;;31.40;;
11431;SDS011;5772;50.940;6.782;2023-03-14T12:11:18;38.20;;;36.50;;
11431;SDS011;5772;50.940;6.782;2023-03-14T12:13:46;37.13;;;35.53;;
11431;SDS011;5772;50.940;6.782;2023-03-14T12:16:20;32.90;;;31.47;;
11431;SDS011;5772;50.940;6.782;2023-03-14T12:19:13;31.03;;;29.83;;
11431;SDS011;5772;50.940;6.782;2023-03-14T12:21:45;33.83;;;32.43;;
11431;SDS011;5772;50.940;6.782;2023-03-14T12:24:16;34.63;;;33.23;;
11431;SDS011;5772;50.940;6.782;2023-03-14T12:26:44;33.47;;;32.17;;
11431;SDS011;5772;50.940;6.782;2023-03-14T12:29:15;35.67;;;33.97;;
11431;SDS011;5772;50.940;6.782;2023-03-14T12:31:43;32.13;;;30.73;;
11431;SDS011;5772;50.940;6.782;2023-03-14T12:37:05;33.37;;;31.47;;
11431;SDS011;5772;50.940;6.782;2023-03-14T12:39:39;27.40;;;26.20;;
11431;SDS011;5772;50.940;6.782;2023-03-14T12:42:08;28.80;;;27.70;;
11431;SDS011;5772;50.940;6.782;2023-03-14T12:44:39;27.47;;;26.30;;
11431;SDS011;5772;50.940;6.782;2023-03-14T12:50:30;30.43;;;29.00;;
11431;SDS011;5772;50.940;6.782;2023-03-14T12:53:03;31.87;;;30.50;;
11431;SDS011;5772;50.940;6.782;2023-03-14T12:55:39;32.93;;;31.60;;
11431;SDS011;5772;50.940;6.782;2023-03-14T12:58:09;35.27;;;33.87;;
11431;SDS011;5772;50.940;6.782;2023-03-14T13:00:38;36.10;;;33.97;;
11431;SDS011;5772;50.940;6.782;2023-03-14T13:03:12;29.63;;;28.40;;
11431;SDS011;5772;50.940;6.782;2023-03-14T13:05:51;28.03;;;26.90;;
11431;SDS011;5772;50.940;6.782;2023-03-14T13:08:26;29.40;;;28.00;;
11431;SDS011;5772;50.940;6.782;2023-03-14T13:10:58;27.20;;;26.00;;
11431;SDS011;5772;50.940;6.782;2023-03-14T13:13:24;35.77;;;34.20;;
11431;SDS011;5772;50.940;6.782;2023-03-14T13:15:53;35.27;;;33.30;;
11431;SDS011;5772;50.940;6.782;2023-03-14T13:18:23;28.40;;;27.30;;
11431;SDS011;5772;50.940;6.782;2023-03-14T13:20:53;30.00;;;28.80;;
11431;SDS011;5772;50.940;6.782;2023-03-14T13:23:20;33.50;;;32.00;;
11431;SDS011;5772;50.940;6.782;2023-03-14T13:25:47;32.37;;;31.07;;
11431;SDS011;5772;50.940;6.782;2023-03-14T13:28:13;31.70;;;30.40;;
11431;SDS011;5772;50.940;6.782;2023-03-14T13:30:40;31.47;;;30.00;;
11431;SDS011;5772;50.940;6.782;2023-03-14T13:33:11;28.33;;;27.17;;
11431;SDS011;5772;50.940;6.782;2023-03-14T13:35:38;32.70;;;31.20;;
11431;SDS011;5772;50.940;6.782;2023-03-14T13:38:05;33.60;;;31.57;;
11431;SDS011;5772;50.940;6.782;2023-03-14T13:40:31;32.43;;;30.97;;
11431;SDS011;5772;50.940;6.782;2023-03-14T13:43:05;31.00;;;29.10;;
11431;SDS011;5772;50.940;6.782;2023-03-14T13:45:49;29.97;;;28.30;;
11431;SDS011;5772;50.940;6.782;2023-03-14T13:48:16;26.23;;;25.07;;
11431;SDS011;5772;50.940;6.782;2023-03-14T13:50:53;28.67;;;26.90;;
11431;SDS011;5772;50.940;6.782;2023-03-14T13:53:19;28.97;;;27.37;;
11431;SDS011;5772;50.940;6.782;2023-03-14T13:55:45;30.13;;;28.77;;
11431;SDS011;5772;50.940;6.782;2023-03-14T13:58:13;35.03;;;33.37;;
11431;SDS011;5772;50.940;6.782;2023-03-14T14:00:44;38.87;;;36.70;;
11431;SDS011;5772;50.940;6.782;2023-03-14T14:03:19;33.67;;;32.20;;
11431;SDS011;5772;50.940;6.782;2023-03-14T14:05:44;32.53;;;30.70;;
11431;SDS011;5772;50.940;6.782;2023-03-14T14:08:10;29.73;;;28.37;;
11431;SDS011;5772;50.940;6.782;2023-03-14T14:10:37;28.97;;;27.57;;
11431;SDS011;5772;50.940;6.782;2023-03-14T14:13:03;24.20;;;23.20;;
11431;SDS011;5772;50.940;6.782;2023-03-14T14:15:31;27.67;;;25.77;;
11431;SDS011;5772;50.940;6.782;2023-03-14T14:17:57;29.90;;;28.00;;
11431;SDS011;5772;50.940;6.782;2023-03-14T14:20:26;30.50;;;28.30;;
11431;SDS011;5772;50.940;6.782;2023-03-14T14:22:54;31.40;;;29.90;;
11431;SDS011;5772;50.940;6.782;2023-03-14T14:25:19;30.67;;;28.87;;
11431;SDS011;5772;50.940;6.782;2023-03-14T14:27:47;31.57;;;30.17;;
11431;SDS011;5772;50.940;6.782;2023-03-14T14:30:29;30.83;;;29.37;;
11431;SDS011;5772;50.940;6.782;2023-03-14T14:33:17;32.13;;;30.73;;
11431;SDS011;5772;50.940;6.782;2023-03-14T14:35:48;29.43;;;28.00;;
11431;SDS011;5772;50.940;6.782;2023-03-14T14:38:16;33.40;;;31.60;;
11431;SDS011;5772;50.940;6.782;2023-03-14T14:40:45;34.50;;;32.87;;
11431;SDS011;5772;50.940;6.782;2023-03-14T14:43:14;33.97;;;32.10;;
11431;SDS011;5772;50.940;6.782;2023-03-14T14:45:43;32.40;;;31.00;;
11431;SDS011;5772;50.940;6.782;2023-03-14T14:48:10;33.67;;;32.00;;